Time;durP1;ratioP1;P1;durP2;ratioP2;P2;SDS_P1;SDS_P2;PMS_P1;PMS_P2;Temp;Humidity;BMP_temperature;BMP_pressure;BME280_temperature;BME280_humidity;BME280_pressure;Samples;Min_cycle;Max_cycle;Signal;HPM_P1;HPM_P2
2022/01/09 00:01:33;;;;;;;6.03;4.18;;;0.00;71.40;;;-1.37;58.14;93682.81;5055345;28;20223;-84
2022/01/09 00:04:02;;;;;;;5.22;4.10;;;0.00;71.40;;;-1.39;57.77;93676.19;5039221;28;20199;-83
2022/01/09 00:06:29;;;;;;;7.20;4.40;;;-0.10;71.40;;;-1.44;57.85;93671.53;5038630;28;20223;-83
2022/01/09 00:08:56;;;;;;;7.47;4.00;;;-0.10;71.40;;;-1.52;57.69;93659.41;5055339;28;20204;-84
2022/01/09 00:11:27;;;;;;;6.53;4.60;;;-0.10;71.40;;;-1.47;57.88;93669.25;5053891;28;20277;-84
2022/01/09 00:13:55;;;;;;;7.50;4.57;;;-0.10;71.40;;;-1.51;57.68;93655.06;5039209;28;20555;-84
2022/01/09 00:16:23;;;;;;;6.13;4.38;;;-0.10;71.40;;;-1.54;58.10;93645.88;5037726;28;20226;-84
2022/01/09 00:18:51;;;;;;;7.05;4.50;;;-0.20;71.40;;;-1.58;57.79;93644.56;5058190;28;20210;-84
2022/01/09 00:21:18;;;;;;;6.90;4.35;;;-0.20;71.40;;;-1.61;57.82;93650.03;5042003;28;20237;-83
2022/01/09 00:23:46;;;;;;;9.52;4.25;;;-0.20;71.40;;;-1.63;57.94;93646.78;5057385;28;20481;-84
2022/01/09 00:26:13;;;;;;;5.85;4.30;;;-0.30;71.40;;;-1.71;57.83;93632.13;5058805;28;20226;-84
2022/01/09 00:28:40;;;;;;;5.82;4.18;;;-0.30;71.40;;;-1.72;57.97;93632.25;5058496;28;20206;-84
2022/01/09 00:31:07;;;;;;;6.88;4.32;;;-0.30;71.40;;;-1.77;57.91;93627.53;5055882;28;20303;-83
2022/01/09 00:33:34;;;;;;;5.03;3.65;;;-0.30;71.40;;;-1.78;57.64;93621.59;5058238;28;20576;-83
2022/01/09 00:36:03;;;;;;;7.90;4.45;;;-0.30;71.50;;;-1.74;58.02;93621.31;5041949;28;20248;-84
2022/01/09 00:38:30;;;;;;;5.55;4.00;;;-0.40;71.60;;;-1.81;58.26;93608.25;5057959;28;20210;-84
2022/01/09 00:40:58;;;;;;;5.55;4.20;;;-0.40;71.60;;;-1.78;58.16;93603.59;5037898;28;20216;-83
2022/01/09 00:43:26;;;;;;;4.75;3.60;;;-0.40;71.70;;;-1.77;58.00;93594.94;5058112;28;20201;-84
2022/01/09 00:45:53;;;;;;;5.72;3.75;;;-0.40;71.70;;;-1.71;58.11;93603.84;5041690;28;20223;-83
2022/01/09 00:48:20;;;;;;;6.82;4.07;;;-0.40;71.80;;;-1.70;57.86;93604.63;5058283;28;20528;-84
2022/01/09 00:50:48;;;;;;;4.45;3.50;;;-0.40;71.90;;;-1.68;58.01;93602.72;5041315;28;20306;-83
2022/01/09 00:53:15;;;;;;;5.40;3.75;;;-0.40;71.90;;;-1.66;58.41;93590.50;5041703;28;20334;-83
2022/01/09 00:55:42;;;;;;;6.32;3.42;;;-0.40;71.90;;;-1.64;58.16;93591.19;5058163;28;20211;-83
2022/01/09 00:58:09;;;;;;;7.00;3.80;;;-0.40;71.90;;;-1.66;58.07;93575.91;5041353;28;20249;-84
2022/01/09 01:00:39;;;;;;;6.13;3.75;;;-0.40;72.00;;;-1.60;58.22;93579.63;5040514;28;20219;-83
2022/01/09 01:03:06;;;;;;;6.63;3.60;;;-0.40;71.90;;;-1.58;58.33;93576.91;5041039;28;20681;-83
2022/01/09 01:05:34;;;;;;;5.57;3.67;;;-0.40;71.90;;;-1.54;58.75;93580.78;5058273;28;20219;-83
2022/01/09 01:08:01;;;;;;;5.28;3.78;;;-0.40;72.00;;;-1.50;58.14;93582.09;5041642;28;20203;-84
2022/01/09 01:10:29;;;;;;;5.25;3.63;;;-0.30;72.10;;;-1.47;57.92;93572.31;5041111;28;20269;-84
2022/01/09 01:12:56;;;;;;;6.18;3.40;;;-0.30;72.10;;;-1.48;58.22;93559.63;5057558;28;20226;-84
2022/01/09 01:15:23;;;;;;;5.05;3.70;;;-0.30;72.10;;;-1.40;58.16;93566.56;5057510;28;20207;-83
2022/01/09 01:17:50;;;;;;;5.25;3.80;;;-0.30;72.10;;;-1.37;58.23;93559.34;5057312;28;20241;-84
2022/01/09 01:20:21;;;;;;;6.05;3.67;;;-0.20;72.30;;;-1.31;58.67;93553.63;5041188;28;20302;-84
2022/01/09 01:22:51;;;;;;;3.88;3.33;;;-0.20;72.30;;;-1.31;58.62;93533.06;5058123;28;20272;-84
2022/01/09 01:25:19;;;;;;;5.90;3.92;;;-0.20;72.30;;;-1.19;58.46;93543.06;5057731;28;20703;-83
2022/01/09 01:27:47;;;;;;;5.25;3.55;;;-0.10;72.50;;;-1.18;58.12;93526.66;5057538;28;20227;-84
2022/01/09 01:30:15;;;;;;;5.03;3.83;;;-0.10;72.50;;;-1.07;58.53;93525.59;5057325;28;20224;-84
2022/01/09 01:32:43;;;;;;;4.68;3.60;;;0.00;72.60;;;-0.97;58.36;93526.25;5057750;28;20246;-84
2022/01/09 01:35:12;;;;;;;4.82;3.30;;;0.00;73.50;;;-0.92;58.59;93518.88;5057006;28;20219;-84
2022/01/09 01:37:42;;;;;;;5.53;3.80;;;0.10;72.60;;;-0.90;58.60;93511.81;5040917;28;20294;-83
2022/01/09 01:40:16;;;;;;;5.18;3.88;;;0.10;72.70;;;-0.78;58.46;93501.22;5041271;28;20248;-84
2022/01/09 01:42:45;;;;;;;3.67;3.30;;;0.20;72.80;;;-0.68;58.49;93502.69;5037339;28;20650;-84
2022/01/09 01:45:13;;;;;;;4.93;3.65;;;0.30;72.80;;;-0.60;58.53;93501.09;5054091;28;20298;-84
2022/01/09 01:47:41;;;;;;;5.82;3.90;;;0.30;72.80;;;-0.59;58.52;93482.09;5053976;28;20214;-85
2022/01/09 01:50:12;;;;;;;5.28;3.50;;;0.40;72.80;;;-0.44;58.38;93495.16;5053868;28;20247;-84
2022/01/09 01:52:45;;;;;;;5.22;3.28;;;0.50;72.90;;;-0.39;58.50;93496.28;5057534;28;20219;-84
2022/01/09 01:55:15;;;;;;;5.45;3.72;;;0.50;73.70;;;-0.36;58.37;93485.66;5037594;28;20232;-85
2022/01/09 01:57:44;;;;;;;9.38;3.65;;;0.60;72.80;;;-0.30;58.24;93491.94;5053657;28;20262;-84
2022/01/09 02:00:17;;;;;;;5.28;3.55;;;0.60;72.70;;;-0.27;58.41;93483.91;5053515;28;20227;-84
2022/01/09 02:02:44;;;;;;;6.43;3.70;;;0.70;72.80;;;-0.22;58.24;93475.69;5021031;28;20208;-85
2022/01/09 02:05:13;;;;;;;5.18;3.72;;;0.80;72.70;;;-0.19;58.21;93471.00;5062417;28;20259;-84
2022/01/09 02:07:41;;;;;;;7.07;3.50;;;0.80;72.70;;;-0.14;58.24;93467.16;5040165;28;20318;-84
2022/01/09 02:10:09;;;;;;;5.18;3.30;;;0.80;72.70;;;-0.11;58.45;93464.25;5053341;28;20289;-84
2022/01/09 02:12:40;;;;;;;5.05;3.78;;;0.90;72.70;;;-0.07;58.05;93462.97;5053169;28;20919;-84
2022/01/09 02:15:34;;;;;;;6.00;3.83;;;0.90;72.70;;;-0.06;58.27;93460.22;5054296;28;20764;-84
2022/01/09 02:18:06;;;;;;;6.47;3.78;;;0.90;72.80;;;-0.08;58.48;93453.63;5053378;28;20200;-84
2022/01/09 02:20:36;;;;;;;7.80;4.13;;;1.00;72.60;;;-0.02;58.50;93447.81;5071191;28;20214;-84
2022/01/09 02:23:06;;;;;;;6.68;4.18;;;1.00;72.60;;;0.02;58.38;93449.09;5056564;28;20300;-85
2022/01/09 02:25:35;;;;;;;8.35;4.45;;;1.00;72.60;;;0.01;58.51;93431.22;5056552;28;20222;-84
2022/01/09 02:28:03;;;;;;;6.30;4.60;;;1.10;72.70;;;0.05;58.45;93433.31;5039897;28;20222;-84
2022/01/09 02:30:32;;;;;;;7.05;4.53;;;1.10;72.60;;;0.06;58.48;93424.59;5039792;28;20246;-84
2022/01/09 02:33:05;;;;;;;7.03;4.50;;;1.10;72.60;;;0.13;58.38;93422.16;5040070;28;20266;-85
2022/01/09 02:35:33;;;;;;;8.48;4.90;;;1.10;72.60;;;0.17;58.54;93415.69;5052067;28;20701;-84
2022/01/09 02:38:04;;;;;;;9.43;5.00;;;1.20;72.70;;;0.18;58.43;93417.31;5053173;28;20282;-85
2022/01/09 02:40:33;;;;;;;7.72;5.00;;;1.20;72.60;;;0.16;58.38;93414.13;5047387;28;20219;-84
2022/01/09 02:43:00;;;;;;;7.15;5.05;;;1.20;72.50;;;0.17;58.15;93405.38;5039822;28;20222;-84
2022/01/09 02:45:28;;;;;;;6.57;4.75;;;1.20;72.40;;;0.09;58.22;93395.91;5055427;28;20277;-84
2022/01/09 02:47:57;;;;;;;7.38;4.45;;;1.20;72.40;;;0.08;58.28;93402.03;5037201;28;20314;-83
2022/01/09 02:52:57;;;;;;;7.35;4.80;;;1.20;72.30;;;0.01;58.21;93395.91;5055321;28;20254;-83
2022/01/09 02:55:27;;;;;;;8.02;5.38;;;1.20;72.30;;;-0.02;58.33;93389.31;5037360;28;20211;-83
2022/01/09 02:58:00;;;;;;;8.50;6.20;;;1.10;72.30;;;-0.10;58.41;93381.59;5038024;28;20195;-83
2022/01/09 03:00:34;;;;;;;9.30;5.50;;;1.20;72.30;;;-0.10;58.40;93386.75;5071676;28;20317;-84
2022/01/09 03:03:02;;;;;;;8.25;5.03;;;1.10;72.30;;;-0.14;58.55;93393.22;5061034;28;20179;-85
2022/01/09 03:05:31;;;;;;;9.10;5.38;;;1.10;72.20;;;-0.17;58.18;93380.69;5018514;28;20216;-83
2022/01/09 03:07:59;;;;;;;8.13;5.60;;;1.00;72.20;;;-0.24;58.15;93367.63;5050728;28;20192;-83
2022/01/09 03:10:27;;;;;;;8.93;5.78;;;1.00;72.10;;;-0.26;58.55;93368.75;5035424;28;20807;-83
2022/01/09 03:12:56;;;;;;;7.72;4.97;;;1.00;72.20;;;-0.31;58.21;93365.88;5034686;28;20728;-84
2022/01/09 03:15:25;;;;;;;7.40;4.55;;;1.00;72.20;;;-0.37;58.32;93357.03;5033746;28;20299;-83
2022/01/09 03:17:52;;;;;;;7.43;4.90;;;0.90;72.10;;;-0.42;58.65;93349.00;5069351;28;20195;-83
2022/01/09 03:20:24;;;;;;;7.65;4.70;;;0.90;72.10;;;-0.45;58.54;93347.56;5052579;28;20230;-84
2022/01/09 03:22:53;;;;;;;9.85;4.97;;;0.90;72.20;;;-0.50;58.41;93342.88;5052282;28;20198;-85
2022/01/09 03:25:25;;;;;;;6.53;4.38;;;0.80;72.10;;;-0.53;58.38;93343.19;5048645;28;20319;-85
2022/01/09 03:27:54;;;;;;;5.50;3.97;;;0.80;72.20;;;-0.59;58.50;93325.03;5032488;28;20203;-85
2022/01/09 03:30:23;;;;;;;6.30;4.47;;;0.70;72.20;;;-0.59;58.49;93325.81;5015730;28;20553;-85
2022/01/09 03:32:52;;;;;;;7.45;4.57;;;0.70;72.30;;;-0.66;58.25;93325.69;5032348;28;20224;-84
2022/01/09 03:35:22;;;;;;;6.43;4.30;;;0.70;72.20;;;-0.70;58.47;93316.66;5042294;28;20218;-85
2022/01/09 03:37:51;;;;;;;6.68;4.15;;;0.70;72.40;;;-0.62;58.67;93330.50;5055473;28;20734;-85
2022/01/09 03:40:24;;;;;;;7.30;4.60;;;0.60;72.30;;;-0.65;58.51;93329.88;5038173;28;20777;-85
2022/01/09 03:42:53;;;;;;;7.15;4.60;;;0.60;72.40;;;-0.66;58.49;93330.84;5037221;28;20203;-85
2022/01/09 03:45:23;;;;;;;6.55;4.65;;;0.60;72.30;;;-0.68;58.41;93327.59;5037168;28;20246;-85
2022/01/09 03:47:51;;;;;;;7.13;4.20;;;0.60;72.30;;;-0.70;58.57;93326.94;5053238;28;20207;-85
2022/01/09 03:50:19;;;;;;;6.18;4.25;;;0.50;72.30;;;-0.71;58.58;93327.13;5053550;28;20215;-86
2022/01/09 03:52:48;;;;;;;6.53;4.40;;;0.50;72.30;;;-0.74;58.54;93319.75;5056062;28;20227;-83
2022/01/09 03:55:20;;;;;;;7.70;4.47;;;0.50;72.30;;;-0.76;58.32;93330.19;5038075;28;20215;-84
2022/01/09 03:57:48;;;;;;;9.07;4.82;;;0.50;72.30;;;-0.78;58.37;93326.97;5039426;28;20242;-84
2022/01/09 04:00:20;;;;;;;6.07;4.38;;;0.50;72.30;;;-0.82;58.47;93312.81;5039086;28;20251;-84
2022/01/09 04:02:49;;;;;;;6.43;4.80;;;0.40;72.40;;;-0.82;58.31;93318.78;5055587;28;20196;-84
2022/01/09 04:05:17;;;;;;;8.02;4.68;;;0.40;72.30;;;-0.85;58.53;93319.09;5040708;28;20315;-82
2022/01/09 04:07:44;;;;;;;8.65;4.63;;;0.40;72.30;;;-0.84;58.49;93323.28;5038953;28;20218;-84
2022/01/09 04:10:22;;;;;;;6.18;4.28;;;0.40;72.40;;;-0.86;58.36;93312.31;5040040;28;20219;-83
2022/01/09 04:12:51;;;;;;;8.98;4.38;;;0.40;72.30;;;-0.94;58.54;93303.81;5022535;28;20258;-83
2022/01/09 04:15:19;;;;;;;8.10;4.57;;;0.40;72.30;;;-0.92;58.45;93302.69;5065517;28;20823;-84
2022/01/09 04:17:52;;;;;;;6.55;4.20;;;0.40;72.40;;;-0.94;58.37;93302.06;5037698;28;20200;-84
2022/01/09 04:20:22;;;;;;;7.05;4.68;;;0.30;72.30;;;-0.91;58.38;93311.22;5037783;28;20249;-84
2022/01/09 04:22:51;;;;;;;7.28;4.43;;;0.30;72.40;;;-0.96;58.63;93301.41;5037184;28;20674;-83
2022/01/09 04:25:18;;;;;;;7.07;4.53;;;0.30;72.30;;;-0.97;58.42;93303.16;5032388;28;20700;-85
2022/01/09 04:27:48;;;;;;;6.68;4.43;;;0.30;72.40;;;-0.99;58.40;93299.97;5041334;28;20214;-84
2022/01/09 04:30:16;;;;;;;6.40;4.43;;;0.30;72.50;;;-1.01;58.55;93301.88;5040063;28;20219;-85
2022/01/09 04:32:43;;;;;;;6.63;4.45;;;0.20;72.30;;;-1.02;58.56;93302.84;5056579;28;20207;-84
2022/01/09 04:35:12;;;;;;;6.10;4.15;;;0.20;72.30;;;-1.05;58.54;93300.59;5056833;28;20427;-84
2022/01/09 04:37:40;;;;;;;6.03;4.30;;;0.20;72.30;;;-1.06;58.59;93306.72;5038823;28;20241;-83
2022/01/09 04:40:11;;;;;;;5.97;4.38;;;0.20;72.30;;;-1.05;58.54;93298.03;5056583;28;20226;-84
2022/01/09 04:42:43;;;;;;;6.25;4.30;;;0.20;72.50;;;-1.04;58.64;93293.69;5056647;28;20642;-84
2022/01/09 04:45:12;;;;;;;8.32;4.60;;;0.20;72.50;;;-1.02;58.56;93297.69;5036930;28;20628;-85
2022/01/09 04:47:46;;;;;;;6.93;4.53;;;0.20;72.60;;;-0.97;58.70;93300.59;5021173;28;20211;-85
2022/01/09 04:50:22;;;;;;;7.25;4.53;;;0.20;72.70;;;-0.96;58.75;93288.53;5054691;28;20242;-84
2022/01/09 04:52:53;;;;;;;6.68;4.50;;;0.20;72.80;;;-0.92;58.25;93292.38;5022992;28;20247;-84
2022/01/09 04:55:21;;;;;;;6.20;4.47;;;0.20;72.70;;;-0.91;58.67;93288.06;5029769;28;20262;-86
2022/01/09 04:57:48;;;;;;;6.80;4.30;;;0.20;72.70;;;-0.92;58.48;93284.66;5038177;28;20235;-85
2022/01/09 05:00:16;;;;;;;7.10;5.00;;;0.20;72.60;;;-0.92;58.32;93289.81;5038539;28;20212;-85
2022/01/09 05:02:43;;;;;;;7.28;4.55;;;0.20;72.60;;;-0.89;58.33;93288.69;5037465;28;20198;-84
2022/01/09 05:05:12;;;;;;;6.65;4.40;;;0.20;72.50;;;-0.91;58.49;93280.34;5071125;28;20220;-85
2022/01/09 05:07:41;;;;;;;7.30;4.50;;;0.20;72.50;;;-0.92;58.36;93281.28;5041596;28;20227;-85
2022/01/09 05:10:10;;;;;;;7.45;4.65;;;0.30;72.60;;;-0.93;58.82;93282.25;5041416;28;20270;-85
2022/01/09 05:12:37;;;;;;;6.75;4.65;;;0.20;72.50;;;-0.94;58.55;93278.06;5057231;28;20188;-85
2022/01/09 05:15:07;;;;;;;6.78;4.43;;;0.20;72.50;;;-0.93;58.71;93284.84;5040668;28;20226;-84
2022/01/09 05:17:35;;;;;;;9.50;4.38;;;0.20;72.70;;;-0.95;58.66;93266.16;5058088;28;20196;-85
2022/01/09 05:20:03;;;;;;;7.35;5.00;;;0.30;72.70;;;-0.92;58.59;93258.94;5042888;28;20478;-85
2022/01/09 05:22:31;;;;;;;9.80;5.82;;;0.30;72.70;;;-0.83;58.69;93273.41;5038114;28;20646;-84
2022/01/09 05:25:02;;;;;;;10.65;6.18;;;0.30;72.80;;;-0.80;58.76;93269.69;5037733;28;20301;-84
2022/01/09 05:27:29;;;;;;;10.52;5.72;;;0.30;73.70;;;-0.76;58.95;93263.25;5021873;28;20210;-84
2022/01/09 05:29:57;;;;;;;8.30;5.55;;;0.30;72.80;;;-0.64;58.88;93263.72;5021545;28;20630;-85
2022/01/09 05:32:24;;;;;;;16.48;8.07;;;0.40;73.10;;;-0.56;58.79;93261.13;5054432;28;20249;-85
2022/01/09 05:34:51;;;;;;;20.60;10.25;;;0.50;73.20;;;-0.47;59.10;93253.38;5037077;28;20251;-85
2022/01/09 05:37:19;;;;;;;26.42;11.55;;;0.50;73.20;;;-0.39;58.63;93243.03;5048871;28;20206;-85
2022/01/09 05:39:47;;;;;;;14.88;7.93;;;0.50;73.20;;;-0.30;58.79;93241.25;5054835;28;20219;-84
2022/01/09 05:42:14;;;;;;;12.68;7.30;;;0.60;73.30;;;-0.23;58.64;93240.41;5042823;28;20243;-85
2022/01/09 05:44:42;;;;;;;11.43;6.43;;;0.60;73.20;;;-0.16;58.91;93243.13;5036072;28;20302;-83
2022/01/09 05:47:10;;;;;;;9.70;6.22;;;0.70;73.40;;;-0.08;58.72;93242.28;5025273;28;20196;-85
2022/01/09 05:49:37;;;;;;;9.75;6.25;;;0.80;73.40;;;-0.01;58.84;93243.22;5036951;28;20210;-85
2022/01/09 05:52:05;;;;;;;9.43;6.47;;;0.80;73.40;;;0.07;58.56;93240.59;5072154;28;20204;-84
2022/01/09 05:54:32;;;;;;;9.27;6.05;;;0.90;73.40;;;0.11;58.72;93247.03;5073641;28;20235;-84
2022/01/09 05:56:59;;;;;;;12.13;6.03;;;0.90;73.40;;;0.18;58.96;93254.09;5057075;28;20208;-84
2022/01/09 05:59:27;;;;;;;10.05;5.88;;;1.00;73.30;;;0.21;58.77;93257.13;5056892;28;20187;-85
2022/01/09 06:01:56;;;;;;;8.93;6.00;;;1.10;73.40;;;0.29;58.67;93269.16;5043367;28;20211;-84
2022/01/09 06:04:25;;;;;;;9.25;5.68;;;1.10;73.40;;;0.37;58.58;93278.66;5039265;28;20275;-87
2022/01/09 06:06:54;;;;;;;8.68;5.53;;;1.20;73.40;;;0.43;58.53;93294.25;5033276;28;20645;-87
2022/01/09 06:09:23;;;;;;;7.88;5.57;;;1.30;73.40;;;0.45;58.79;93283.75;5039915;28;20598;-87
2022/01/09 06:11:50;;;;;;;8.77;6.05;;;1.30;73.30;;;0.54;58.50;93294.81;5040187;28;20563;-87
2022/01/09 06:14:21;;;;;;;9.38;6.38;;;1.40;73.40;;;0.54;58.78;93285.31;5039445;28;20257;-86
2022/01/09 06:16:48;;;;;;;9.90;7.38;;;1.40;73.30;;;0.65;58.67;93284.13;5040793;28;20235;-88
2022/01/09 06:19:15;;;;;;;10.65;7.20;;;1.50;73.30;;;0.63;58.90;93289.47;5037056;28;20207;-87
2022/01/09 06:21:43;;;;;;;9.45;6.68;;;1.50;73.30;;;0.69;58.88;93294.91;5027308;28;20215;-88
2022/01/09 06:24:11;;;;;;;9.18;6.22;;;1.60;73.30;;;0.71;58.68;93291.19;5036132;28;20223;-87
2022/01/09 06:26:39;;;;;;;10.43;6.38;;;1.60;73.30;;;0.84;58.61;93305.28;5053062;28;20751;-88
2022/01/09 06:29:07;;;;;;;8.10;5.72;;;1.70;73.40;;;0.88;58.62;93298.78;5019794;28;20196;-89
2022/01/09 06:31:35;;;;;;;9.25;5.68;;;1.70;73.20;;;0.84;58.56;93290.59;5034291;28;20704;-89
2022/01/09 06:34:02;;;;;;;8.93;6.22;;;1.80;73.20;;;0.90;58.53;93297.63;5056295;28;20249;-87
2022/01/09 06:36:29;;;;;;;7.63;5.75;;;1.80;73.20;;;0.93;58.50;93301.69;5039937;28;20229;-87
2022/01/09 06:38:57;;;;;;;9.73;7.30;;;1.80;73.10;;;0.90;58.57;93299.44;5056241;28;20206;-87
2022/01/09 06:41:24;;;;;;;13.10;7.85;;;1.80;73.20;;;0.95;58.47;93295.38;5039777;28;20630;-86
2022/01/09 06:43:52;;;;;;;10.00;6.05;;;1.80;73.20;;;0.94;58.57;93291.16;5056380;28;20191;-87
2022/01/09 06:46:19;;;;;;;8.98;5.85;;;1.90;73.20;;;0.99;58.46;93295.00;5055851;28;20226;-87
2022/01/09 06:48:47;;;;;;;9.52;6.60;;;1.90;73.10;;;1.01;58.52;93295.66;5039123;28;20203;-87
2022/01/09 06:51:14;;;;;;;9.32;6.00;;;1.90;73.20;;;0.97;58.69;93299.56;5055714;28;20219;-88
2022/01/09 06:53:43;;;;;;;7.93;5.55;;;1.90;73.20;;;0.98;58.57;93307.13;5055581;28;20253;-88
2022/01/09 06:56:10;;;;;;;7.25;5.10;;;1.90;73.10;;;1.05;58.53;93312.38;5055372;28;20629;-87
2022/01/09 06:58:38;;;;;;;7.03;5.15;;;2.00;73.20;;;1.06;58.41;93307.06;5039563;28;20676;-88
2022/01/09 07:01:05;;;;;;;7.30;5.38;;;2.00;73.20;;;1.08;58.68;93304.31;5039041;28;20631;-88
2022/01/09 07:03:33;;;;;;;7.45;5.20;;;2.00;73.20;;;1.04;58.56;93292.69;5039087;28;20191;-88
2022/01/09 07:06:00;;;;;;;8.13;5.25;;;2.00;73.20;;;1.10;58.63;93294.63;5055991;28;20229;-88
2022/01/09 07:08:31;;;;;;;8.55;5.53;;;2.10;73.20;;;1.11;58.50;93291.84;5039299;28;20195;-88
2022/01/09 07:10:58;;;;;;;9.60;6.00;;;2.00;73.20;;;1.09;58.56;93286.03;5055634;28;20219;-88
2022/01/09 07:13:26;;;;;;;7.95;5.38;;;2.10;74.20;;;1.10;58.68;93273.97;5055802;28;20227;-88
2022/01/09 07:15:53;;;;;;;7.18;5.28;;;2.00;73.20;;;1.18;58.67;93291.16;5039277;28;20215;-88
2022/01/09 07:18:21;;;;;;;10.60;6.40;;;2.10;74.20;;;1.18;58.60;93291.94;5038685;28;20274;-87
2022/01/09 07:20:49;;;;;;;11.82;6.35;;;2.10;73.30;;;1.18;58.67;93283.41;5037435;28;20241;-87
2022/01/09 07:23:17;;;;;;;8.07;5.50;;;2.10;73.30;;;1.22;58.45;93280.31;5038928;28;20195;-87
2022/01/09 07:25:44;;;;;;;8.60;6.35;;;2.10;73.40;;;1.27;58.60;93290.91;5037953;28;20230;-86
2022/01/09 07:28:13;;;;;;;7.15;5.30;;;2.20;73.40;;;1.30;59.04;93287.16;5071361;28;20205;-87
2022/01/09 07:30:40;;;;;;;9.80;5.30;;;2.20;73.40;;;1.34;58.68;93285.03;5041196;28;20220;-85
2022/01/09 07:33:08;;;;;;;7.93;5.82;;;2.20;73.40;;;1.35;58.70;93282.28;5046775;28;20198;-87
2022/01/09 07:35:36;;;;;;;9.65;6.65;;;2.20;73.40;;;1.33;58.78;93284.25;5072252;28;20214;-86
2022/01/09 07:38:04;;;;;;;8.77;6.20;;;2.30;73.40;;;1.39;58.56;93286.13;5055500;28;20538;-84
2022/01/09 07:40:31;;;;;;;10.93;6.30;;;2.30;73.40;;;1.42;58.71;93297.88;5038327;28;20227;-86
2022/01/09 07:42:59;;;;;;;11.15;6.93;;;2.30;73.40;;;1.39;58.61;93285.31;5039246;28;20200;-86
2022/01/09 07:45:27;;;;;;;12.05;7.60;;;2.30;73.40;;;1.38;58.68;93283.69;5055165;28;20222;-86
2022/01/09 07:47:57;;;;;;;11.82;7.65;;;2.40;73.30;;;1.38;58.37;93287.09;5038669;28;20207;-86
2022/01/09 07:50:27;;;;;;;12.63;8.45;;;2.40;73.20;;;1.44;58.50;93299.31;5039061;28;20226;-86
2022/01/09 07:52:55;;;;;;;13.38;8.77;;;2.40;73.20;;;1.43;58.74;93296.91;5037455;28;20211;-86
2022/01/09 07:55:23;;;;;;;12.45;7.85;;;2.40;73.20;;;1.40;58.37;93286.91;5038522;28;20234;-85
2022/01/09 07:57:51;;;;;;;10.35;7.55;;;2.40;73.20;;;1.43;58.75;93289.94;5038673;28;20211;-86
2022/01/09 08:00:20;;;;;;;11.30;7.75;;;2.40;73.20;;;1.44;58.63;93288.16;5054333;28;20219;-87
2022/01/09 08:02:49;;;;;;;12.55;8.25;;;2.40;73.10;;;1.38;58.85;93278.53;5054566;28;20266;-87
2022/01/09 08:05:17;;;;;;;12.15;7.80;;;2.40;73.10;;;1.39;58.73;93274.97;5018917;28;20226;-87
2022/01/09 08:07:45;;;;;;;11.35;7.65;;;2.40;73.20;;;1.44;58.53;93275.25;5021367;28;20200;-85
2022/01/09 08:10:13;;;;;;;14.18;8.13;;;2.40;73.20;;;1.44;58.78;93276.06;5054833;28;20215;-87
2022/01/09 08:12:40;;;;;;;14.30;9.23;;;2.40;73.20;;;1.50;58.72;93273.75;5054593;28;20272;-85
2022/01/09 08:15:08;;;;;;;12.98;8.98;;;2.40;73.20;;;1.46;58.66;93265.53;5054333;28;20276;-86
2022/01/09 08:17:36;;;;;;;13.35;8.73;;;2.40;73.20;;;1.54;59.06;93278.38;5055297;28;20245;-88
2022/01/09 08:20:05;;;;;;;9.23;6.80;;;2.50;73.30;;;1.59;58.64;93278.66;5036883;28;20247;-87
2022/01/09 08:22:35;;;;;;;10.57;6.95;;;2.50;73.40;;;1.65;58.59;93278.91;5054803;28;20199;-87
2022/01/09 08:25:05;;;;;;;9.95;7.10;;;2.50;73.40;;;1.62;58.78;93267.16;5037725;28;20329;-86
2022/01/09 08:27:33;;;;;;;9.82;6.25;;;2.60;73.40;;;1.73;58.76;93282.25;5038526;28;20264;-85
2022/01/09 08:30:02;;;;;;;8.00;5.78;;;2.50;73.40;;;1.78;58.46;93279.09;5038440;28;20218;-85
2022/01/09 08:32:29;;;;;;;8.75;5.90;;;2.60;73.40;;;1.82;58.54;93271.78;5054417;28;20256;-85
2022/01/09 08:34:57;;;;;;;10.40;7.28;;;2.70;73.50;;;1.90;58.75;93272.53;5054554;28;20235;-87
2022/01/09 08:37:25;;;;;;;11.32;7.57;;;2.70;73.50;;;1.99;58.53;93272.41;5038825;28;20210;-88
2022/01/09 08:39:53;;;;;;;17.75;11.13;;;2.80;73.60;;;2.01;59.13;93262.69;5056818;28;20242;-88
2022/01/09 08:42:20;;;;;;;15.73;10.15;;;2.80;73.60;;;2.09;58.76;93262.59;5044572;28;20219;-87
2022/01/09 08:44:48;;;;;;;15.30;10.10;;;2.90;73.70;;;2.21;58.69;93270.69;5050104;28;20227;-88
2022/01/09 08:47:16;;;;;;;11.38;8.20;;;3.00;73.80;;;2.33;58.68;93268.44;5039086;28;20192;-87
2022/01/09 08:49:44;;;;;;;9.25;6.70;;;3.00;73.80;;;2.43;58.91;93273.31;5038714;28;20231;-88
2022/01/09 08:52:12;;;;;;;9.10;6.57;;;3.10;73.80;;;2.44;58.63;93265.41;5040524;28;20203;-89
2022/01/09 08:54:40;;;;;;;11.20;7.15;;;3.10;73.80;;;2.59;58.50;93272.28;5032683;28;20330;-89
2022/01/09 08:57:08;;;;;;;10.23;7.00;;;3.20;73.80;;;2.67;58.63;93269.59;5056673;28;20191;-89
2022/01/09 08:59:36;;;;;;;10.82;7.32;;;3.30;73.90;;;2.79;58.50;93275.88;5057181;28;20662;-88
2022/01/09 09:02:04;;;;;;;13.70;7.00;;;3.40;74.00;;;2.93;58.48;93281.19;5040623;28;20206;-89
2022/01/09 09:04:33;;;;;;;10.98;7.75;;;3.50;74.00;;;3.07;58.55;93289.91;5057021;28;20611;-89
2022/01/09 09:07:04;;;;;;;74.28;39.15;;;3.60;74.00;;;3.18;58.61;93281.63;5059265;28;20196;-89
2022/01/09 09:09:32;;;;;;;128.52;65.75;;;3.70;74.10;;;3.20;58.22;93275.25;5057896;28;20214;-89
2022/01/09 09:12:01;;;;;;;59.42;38.67;;;3.80;74.90;;;3.32;58.53;93279.91;5057066;28;20238;-89
2022/01/09 09:14:29;;;;;;;36.40;24.42;;;3.90;74.00;;;3.45;58.43;93287.00;5058391;28;20219;-90
2022/01/09 09:16:57;;;;;;;25.30;17.52;;;3.90;73.90;;;3.47;57.87;93272.88;5041062;28;20203;-89
2022/01/09 09:19:25;;;;;;;19.27;12.88;;;4.10;74.00;;;3.55;58.19;93266.72;5053792;28;20212;-89
2022/01/09 09:21:52;;;;;;;15.63;10.30;;;4.10;73.90;;;3.68;58.42;93281.59;5054472;28;20196;-90
2022/01/09 09:24:20;;;;;;;13.43;9.90;;;4.30;73.90;;;3.73;58.17;93276.63;5021419;28;20208;-90
2022/01/09 09:26:48;;;;;;;11.82;8.38;;;4.30;73.80;;;3.89;58.14;93287.69;5021441;28;20208;-90
2022/01/09 09:29:16;;;;;;;12.68;9.30;;;4.40;73.80;;;3.87;58.28;93269.75;5039010;28;20192;-90
2022/01/09 09:31:44;;;;;;;13.00;9.80;;;4.50;73.80;;;3.99;58.13;93288.97;5057653;28;20779;-90
2022/01/09 09:34:12;;;;;;;11.18;8.85;;;4.60;73.80;;;4.05;58.15;93281.41;5039761;28;20222;-90
2022/01/09 09:36:41;;;;;;;10.85;8.20;;;4.60;73.70;;;4.15;58.13;93282.66;5057265;28;20223;-91
2022/01/09 09:39:09;;;;;;;10.93;8.35;;;4.70;73.70;;;4.21;58.09;93270.72;5040823;28;20203;-90
2022/01/09 09:41:41;;;;;;;11.32;9.45;;;4.80;73.80;;;4.34;57.97;93282.91;5040919;28;20241;-90
2022/01/09 09:44:09;;;;;;;10.10;7.63;;;4.90;73.90;;;4.40;58.18;93273.56;5037305;28;20291;-90
2022/01/09 09:46:38;;;;;;;11.02;7.28;;;5.00;73.90;;;4.53;58.28;93271.00;5036811;28;20246;-91
2022/01/09 09:49:06;;;;;;;9.35;6.78;;;5.00;73.90;;;4.70;58.02;93279.25;5035837;28;20215;-91
2022/01/09 09:51:34;;;;;;;8.15;6.45;;;5.10;73.90;;;4.79;57.94;93264.28;5039138;28;20743;-92
2022/01/09 09:54:02;;;;;;;9.15;7.00;;;5.20;74.00;;;4.94;57.69;93267.53;5057050;28;20257;-91
2022/01/09 09:56:31;;;;;;;12.65;8.27;;;5.30;74.20;;;5.09;57.71;93267.31;5040020;28;20231;-92
2022/01/09 09:59:01;;;;;;;12.27;8.18;;;5.50;74.00;;;5.24;57.42;93271.53;5040364;28;20200;-91
2022/01/09 10:01:35;;;;;;;11.50;7.53;;;5.60;73.90;;;5.31;57.54;93271.53;5040679;28;20235;-90
2022/01/09 10:04:09;;;;;;;9.75;6.68;;;5.70;73.60;;;5.33;57.38;93272.13;5036568;28;20287;-92
2022/01/09 10:06:50;;;;;;;11.35;7.25;;;5.80;73.30;;;5.40;57.27;93278.13;5036793;28;20227;-91
2022/01/09 10:09:23;;;;;;;10.75;7.50;;;5.80;73.20;;;5.43;57.19;93283.75;5037666;28;20222;-92
2022/01/09 10:12:01;;;;;;;8.13;6.60;;;5.90;73.00;;;5.40;57.16;93283.34;5036282;28;20192;-91
2022/01/09 10:14:32;;;;;;;9.85;7.07;;;6.00;73.10;;;5.42;57.31;93287.34;5036971;28;20220;-91
2022/01/09 10:17:16;;;;;;;15.88;9.48;;;6.00;73.10;;;5.38;56.92;93288.75;5036022;28;20199;-91
2022/01/09 10:19:52;;;;;;;16.42;10.23;;;6.00;73.00;;;5.33;56.62;93293.72;5039352;28;20234;-88
2022/01/09 10:22:44;;;;;;;15.88;10.38;;;6.00;72.80;;;5.18;56.75;93291.31;5055976;28;20282;-89
2022/01/09 10:25:35;;;;;;;15.52;10.00;;;6.00;72.40;;;5.05;56.73;93284.28;5056881;28;20241;-88
2022/01/09 10:28:20;;;;;;;13.95;8.50;;;5.90;72.20;;;5.02;56.85;93289.13;5040257;28;20598;-90
2022/01/09 10:30:51;;;;;;;12.73;8.20;;;5.90;72.30;;;4.98;57.08;93288.72;5036591;28;20215;-88
2022/01/09 10:33:27;;;;;;;11.90;8.25;;;5.80;72.60;;;5.04;57.03;93294.91;5019773;28;20200;-88
2022/01/09 10:35:55;;;;;;;34.03;18.70;;;5.80;72.90;;;5.02;57.11;93283.91;5030519;28;20238;-88